Time;durP1;ratioP1;P1;durP2;ratioP2;P2;SDS_P1;SDS_P2;PMS_P1;PMS_P2;Temp;Humidity;BMP_temperature;BMP_pressure;BME280_temperature;BME280_humidity;BME280_pressure;Samples;Min_cycle;Max_cycle;Signal;HPM_P1;HPM_P2
2023/12/18 00:02:10;;;;;;;5.33;4.83;;;;;;;6.64;100.00;102305.06;5007300;28;20298;-79
2023/12/18 00:04:38;;;;;;;5.90;4.80;;;;;;;6.60;100.00;102312.22;5011861;28;20203;-78
2023/12/18 00:07:04;;;;;;;5.53;4.27;;;;;;;6.61;100.00;102310.44;5010456;28;20207;-78
2023/12/18 00:09:31;;;;;;;4.83;3.90;;;;;;;6.67;100.00;102304.13;5014697;28;20237;-78
2023/12/18 00:12:19;;;;;;;6.57;5.33;;;;;;;6.69;100.00;102297.03;5011572;28;20569;-77
2023/12/18 00:14:48;;;;;;;5.87;5.10;;;;;;;6.73;100.00;102289.00;5011799;28;20198;-78
2023/12/18 00:17:14;;;;;;;6.17;5.23;;;;;;;6.75;100.00;102288.97;5017178;28;20226;-78
2023/12/18 00:19:55;;;;;;;7.17;5.27;;;;;;;6.73;100.00;102290.78;5010195;28;20690;-76
2023/12/18 00:22:22;;;;;;;6.83;5.00;;;;;;;6.72;100.00;102292.56;5020694;28;20230;-76
2023/12/18 00:24:49;;;;;;;6.33;4.37;;;;;;;6.79;100.00;102293.31;5012286;28;20222;-78
2023/12/18 00:27:16;;;;;;;6.47;4.50;;;;;;;6.78;100.00;102294.22;5002698;28;20211;-79
2023/12/18 00:29:43;;;;;;;6.33;5.43;;;;;;;6.77;100.00;102290.69;5010816;28;20232;-77
2023/12/18 00:32:09;;;;;;;5.77;5.00;;;;;;;6.75;100.00;102289.84;5013419;28;20219;-79
2023/12/18 00:34:42;;;;;;;7.93;5.70;;;;;;;6.77;100.00;102295.13;5009737;28;20229;-78
2023/12/18 00:37:10;;;;;;;6.47;5.07;;;;;;;6.78;100.00;102296.84;5009053;28;20208;-77
2023/12/18 00:39:36;;;;;;;6.03;4.80;;;;;;;6.75;100.00;102297.78;5005664;28;20229;-78
2023/12/18 00:42:03;;;;;;;5.97;4.87;;;;;;;6.75;100.00;102296.91;5010109;28;20220;-78
2023/12/18 00:44:30;;;;;;;5.77;5.13;;;;;;;6.73;100.00;102291.66;5013988;28;20206;-78
2023/12/18 00:46:56;;;;;;;7.47;5.13;;;;;;;6.73;100.00;102299.59;5012963;28;20203;-80
2023/12/18 00:49:23;;;;;;;5.37;4.87;;;;;;;6.71;100.00;102301.41;5012127;28;20230;-79
2023/12/18 00:51:49;;;;;;;6.83;5.40;;;;;;;6.72;100.00;102297.84;5009518;28;20208;-78
2023/12/18 00:54:17;;;;;;;6.07;5.37;;;;;;;6.70;100.00;102304.06;5004611;28;20206;-77
2023/12/18 00:56:44;;;;;;;6.80;5.83;;;;;;;6.66;100.00;102308.56;5014100;28;20214;-78
2023/12/18 00:59:10;;;;;;;7.27;6.03;;;;;;;6.63;100.00;102313.06;5018523;28;20265;-79
2023/12/18 01:01:38;;;;;;;7.07;5.83;;;;;;;6.65;100.00;102317.41;5014218;28;20249;-79
2023/12/18 01:04:04;;;;;;;7.03;6.07;;;;;;;6.62;100.00;102314.84;5005694;28;20200;-77
2023/12/18 01:06:31;;;;;;;8.23;6.23;;;;;;;6.58;100.00;102314.03;5014953;28;20560;-78
2023/12/18 01:08:57;;;;;;;8.50;6.50;;;;;;;6.54;100.00;102303.53;5018698;28;20907;-78
2023/12/18 01:11:24;;;;;;;6.00;5.40;;;;;;;6.53;100.00;102313.25;5011928;28;20195;-80
2023/12/18 01:13:50;;;;;;;8.77;6.30;;;;;;;6.49;100.00;102311.56;5015504;28;20207;-77
2023/12/18 01:16:17;;;;;;;6.47;5.53;;;;;;;6.49;100.00;102310.69;5008875;28;20199;-78
2023/12/18 01:18:45;;;;;;;6.77;5.67;;;;;;;6.50;100.00;102301.84;5007125;28;20222;-78
2023/12/18 01:21:13;;;;;;;7.43;5.97;;;;;;;6.46;100.00;102306.31;5006431;28;20249;-78
2023/12/18 01:23:39;;;;;;;7.53;6.23;;;;;;;6.45;100.00;102309.03;5012695;28;20206;-78
2023/12/18 01:26:06;;;;;;;6.87;6.00;;;;;;;6.43;100.00;102314.34;5017965;28;20670;-77
2023/12/18 01:28:34;;;;;;;8.83;5.90;;;;;;;6.44;100.00;102307.28;5012725;28;20836;-77
2023/12/18 01:31:00;;;;;;;8.37;6.10;;;;;;;6.42;100.00;102309.94;5013879;28;20642;-78
2023/12/18 01:33:29;;;;;;;7.50;5.50;;;;;;;6.39;100.00;102309.13;5017535;28;20203;-78
2023/12/18 01:35:55;;;;;;;7.43;5.90;;;;;;;6.37;100.00;102310.94;5011681;28;20204;-79
2023/12/18 01:38:22;;;;;;;8.67;7.03;;;;;;;6.38;100.00;102304.75;5019634;28;20238;-79
2023/12/18 01:40:48;;;;;;;6.97;5.77;;;;;;;6.36;100.00;102301.25;5010431;28;20230;-79
2023/12/18 01:43:25;;;;;;;10.00;6.57;;;;;;;6.37;100.00;102300.34;5017853;28;20213;-78
2023/12/18 01:45:55;;;;;;;7.63;5.80;;;;;;;6.38;100.00;102310.03;5010375;28;20207;-78
2023/12/18 01:48:22;;;;;;;8.10;6.20;;;;;;;6.38;100.00;102313.56;5017586;28;20237;-78
2023/12/18 01:50:48;;;;;;;7.03;5.90;;;;;;;6.38;100.00;102304.75;5014456;28;20227;-78
2023/12/18 01:53:15;;;;;;;8.20;5.77;;;;;;;6.36;100.00;102309.19;5013739;28;20199;-80
2023/12/18 01:55:42;;;;;;;6.57;5.70;;;;;;;6.34;100.00;102316.28;5011883;28;20206;-77
2023/12/18 01:58:08;;;;;;;6.80;5.80;;;;;;;6.35;100.00;102307.44;5013115;28;20217;-77
2023/12/18 02:00:35;;;;;;;9.23;6.63;;;;;;;6.34;100.00;102317.16;5007235;28;20227;-77
2023/12/18 02:03:03;;;;;;;10.17;6.23;;;;;;;6.31;100.00;102311.91;5015727;28;20217;-78
2023/12/18 02:05:30;;;;;;;9.17;7.00;;;;;;;6.28;100.00;102315.47;5014927;28;20207;-77
2023/12/18 02:07:57;;;;;;;6.83;5.30;;;;;;;6.28;100.00;102304.91;5014003;28;20199;-78
2023/12/18 02:10:24;;;;;;;7.73;6.03;;;;;;;6.29;100.00;102308.41;5008137;28;20239;-79
2023/12/18 02:12:51;;;;;;;6.77;5.77;;;;;;;6.30;100.00;102312.81;5019572;28;20213;-78
2023/12/18 02:15:17;;;;;;;7.97;5.77;;;;;;;6.31;100.00;102296.03;5013733;28;20207;-78
2023/12/18 02:17:44;;;;;;;7.43;6.63;;;;;;;6.31;100.00;102305.75;5004510;28;20203;-77
2023/12/18 02:20:13;;;;;;;8.33;6.30;;;;;;;6.32;100.00;102307.50;5007314;28;20236;-78
2023/12/18 02:22:51;;;;;;;8.03;5.80;;;;;;;6.32;100.00;102286.31;5003842;28;20206;-78
2023/12/18 02:25:18;;;;;;;7.73;6.63;;;;;;;6.33;100.00;102285.44;5006470;28;20205;-77
2023/12/18 02:27:45;;;;;;;7.77;6.10;;;;;;;6.34;100.00;102273.94;5018529;28;20210;-79
2023/12/18 02:30:15;;;;;;;10.13;6.43;;;;;;;6.28;100.00;102281.09;5011159;28;20226;-78
2023/12/18 02:32:41;;;;;;;9.73;7.00;;;;;;;6.30;100.00;102277.53;5002139;28;20263;-79
2023/12/18 02:35:08;;;;;;;9.53;6.67;;;;;;;6.28;100.00;102264.34;5006496;28;20206;-79
2023/12/18 02:37:35;;;;;;;9.37;7.03;;;;;;;6.27;100.00;102265.25;5010863;28;20241;-79
2023/12/18 02:40:03;;;;;;;10.57;7.60;;;;;;;6.26;100.00;102256.47;5007425;28;20219;-79
2023/12/18 02:42:29;;;;;;;10.83;7.67;;;;;;;6.22;100.00;102251.25;5012455;28;20791;-78
2023/12/18 02:44:57;;;;;;;12.23;7.77;;;;;;;6.24;100.00;102270.63;5015203;28;20900;-77
2023/12/18 02:47:23;;;;;;;10.30;7.60;;;;;;;6.21;100.00;102270.69;5019330;28;20199;-77
2023/12/18 02:49:50;;;;;;;9.30;7.30;;;;;;;6.17;100.00;102266.34;5011239;28;20234;-77
2023/12/18 02:52:17;;;;;;;8.50;6.37;;;;;;;6.16;100.00;102276.03;5016918;28;20670;-78
2023/12/18 02:54:44;;;;;;;9.57;7.47;;;;;;;6.17;100.00;102268.97;5004613;28;20211;-78
2023/12/18 02:57:11;;;;;;;11.40;7.53;;;;;;;6.19;100.00;102270.69;5009603;28;20637;-79
2023/12/18 02:59:38;;;;;;;9.23;7.13;;;;;;;6.16;100.00;102268.09;5015005;28;20230;-77
2023/12/18 03:02:04;;;;;;;15.30;8.20;;;;;;;6.15;100.00;102278.72;5011027;28;20237;-79
2023/12/18 03:04:31;;;;;;;11.33;7.40;;;;;;;6.16;100.00;102273.41;5012386;28;20207;-78
2023/12/18 03:06:57;;;;;;;12.70;7.70;;;;;;;6.14;100.00;102258.44;5015975;28;20573;-78
2023/12/18 03:09:24;;;;;;;14.67;7.77;;;;;;;6.12;100.00;102253.19;5006522;28;20230;-78
2023/12/18 03:11:50;;;;;;;14.63;7.30;;;;;;;6.12;100.00;102254.97;5007442;28;20849;-77
2023/12/18 03:14:18;;;;;;;10.37;8.43;;;;;;;6.08;100.00;102271.81;5009720;28;20207;-79
2023/12/18 03:16:44;;;;;;;11.40;8.50;;;;;;;6.06;100.00;102253.34;5006788;28;20788;-78
2023/12/18 03:19:11;;;;;;;11.33;8.63;;;;;;;6.07;100.00;102254.19;5008307;28;20614;-79
2023/12/18 03:21:38;;;;;;;14.87;8.53;;;;;;;6.07;100.00;102249.78;5008164;28;20693;-79
2023/12/18 03:24:04;;;;;;;16.67;10.17;;;;;;;6.05;100.00;102258.66;5009884;28;20582;-78
2023/12/18 03:26:31;;;;;;;12.73;8.63;;;;;;;6.05;100.00;102271.88;5009966;28;20211;-77
2023/12/18 03:28:57;;;;;;;13.20;8.90;;;;;;;6.00;100.00;102260.50;5013085;28;20227;-77
2023/12/18 03:31:25;;;;;;;12.53;8.87;;;;;;;5.97;100.00;102261.41;5000264;28;20210;-79
2023/12/18 03:33:52;;;;;;;13.77;8.93;;;;;;;5.94;100.00;102264.13;5009605;28;20204;-77
2023/12/18 03:36:18;;;;;;;14.10;9.33;;;;;;;5.92;100.00;102271.19;5005329;28;20247;-80
2023/12/18 03:38:45;;;;;;;13.13;9.40;;;;;;;5.89;100.00;102266.88;5008653;28;20230;-80
2023/12/18 03:41:11;;;;;;;13.97;9.40;;;;;;;5.89;100.00;102266.00;5008532;28;20219;-77
2023/12/18 03:43:38;;;;;;;17.10;9.77;;;;;;;5.89;100.00;102274.81;5014754;28;20207;-77
2023/12/18 03:46:05;;;;;;;15.97;9.73;;;;;;;5.88;99.63;102265.13;5009397;28;20202;-79
2023/12/18 03:48:33;;;;;;;18.83;11.03;;;;;;;5.89;99.06;102263.34;5011389;28;20226;-78
2023/12/18 03:50:59;;;;;;;14.63;10.10;;;;;;;5.85;99.35;102267.78;5008352;28;20203;-78
2023/12/18 03:53:26;;;;;;;17.67;10.07;;;;;;;5.84;98.53;102268.69;5012580;28;20632;-80
2023/12/18 03:55:52;;;;;;;15.10;9.43;;;;;;;5.84;98.97;102254.59;5003101;28;20233;-77
2023/12/18 03:58:19;;;;;;;16.20;11.17;;;;;;;5.82;98.56;102248.44;5015139;28;20218;-78
2023/12/18 04:00:45;;;;;;;17.13;12.53;;;;;;;5.78;98.71;102260.84;5013832;28;20203;-80
2023/12/18 04:03:12;;;;;;;19.07;11.07;;;;;;;5.79;98.40;102253.78;5014322;28;20203;-78
2023/12/18 04:05:39;;;;;;;13.50;10.50;;;;;;;5.79;98.66;102254.66;5012084;28;20210;-79
2023/12/18 04:08:06;;;;;;;18.67;11.47;;;;;;;5.76;98.67;102260.00;5008255;28;20223;-79
2023/12/18 04:10:33;;;;;;;17.20;11.50;;;;;;;5.74;98.63;102272.38;5003412;28;20982;-78
2023/12/18 04:12:59;;;;;;;16.37;10.60;;;;;;;5.77;98.82;102268.81;5014228;28;20202;-77
2023/12/18 04:15:26;;;;;;;16.97;11.20;;;;;;;5.75;98.05;102267.97;5011093;28;20213;-80
2023/12/18 04:17:52;;;;;;;16.73;10.77;;;;;;;5.74;98.29;102266.22;5007738;28;20714;-79
2023/12/18 04:20:19;;;;;;;15.43;10.50;;;;;;;5.70;98.60;102256.63;5013733;28;20298;-79
2023/12/18 04:22:47;;;;;;;15.30;11.10;;;;;;;5.71;98.22;102261.00;5006298;28;20223;-78
2023/12/18 04:25:13;;;;;;;19.67;11.97;;;;;;;5.70;97.27;102267.19;5013312;28;20195;-76
2023/12/18 04:27:40;;;;;;;15.33;11.67;;;;;;;5.70;96.94;102264.53;5013207;28;20223;-77
2023/12/18 04:30:07;;;;;;;20.00;12.70;;;;;;;5.69;96.01;102260.16;5016189;28;20230;-80
2023/12/18 04:32:34;;;;;;;18.53;12.67;;;;;;;5.68;96.26;102246.06;5017208;28;20207;-77
2023/12/18 04:35:00;;;;;;;14.53;10.97;;;;;;;5.68;95.45;102258.41;5021199;28;20217;-79
2023/12/18 04:37:27;;;;;;;16.47;11.47;;;;;;;5.70;94.79;102253.97;5010973;28;20207;-78
2023/12/18 04:39:55;;;;;;;20.07;12.60;;;;;;;5.64;94.98;102260.22;5014195;28;20570;-78
2023/12/18 04:42:22;;;;;;;15.60;11.43;;;;;;;5.61;94.87;102260.28;5012588;28;20230;-79
2023/12/18 04:44:49;;;;;;;18.00;11.50;;;;;;;5.59;95.46;102262.94;5006329;28;20212;-76
2023/12/18 04:47:15;;;;;;;17.23;12.03;;;;;;;5.59;95.84;102270.00;5014131;28;20207;-79
2023/12/18 04:49:41;;;;;;;23.87;12.63;;;;;;;5.55;95.76;102271.81;5018340;28;20315;-79
2023/12/18 04:52:08;;;;;;;16.53;11.73;;;;;;;5.55;95.98;102271.81;5014730;28;20190;-77
2023/12/18 04:54:34;;;;;;;20.17;11.93;;;;;;;5.52;96.52;102276.31;5018272;28;20295;-79
2023/12/18 04:57:02;;;;;;;16.20;12.20;;;;;;;5.52;96.65;102260.44;5019089;28;20207;-78
2023/12/18 04:59:29;;;;;;;21.57;12.63;;;;;;;5.51;96.63;102266.63;5022590;28;20223;-78
2023/12/18 05:01:55;;;;;;;17.37;12.40;;;;;;;5.48;97.21;102254.34;5012363;28;20219;-78
2023/12/18 05:04:22;;;;;;;22.13;13.33;;;;;;;5.47;96.74;102265.81;5016796;28;20797;-78
2023/12/18 05:06:48;;;;;;;19.50;13.10;;;;;;;5.46;96.70;102261.41;5013574;28;20211;-77
2023/12/18 05:09:15;;;;;;;18.77;13.37;;;;;;;5.46;96.21;102279.03;5013706;28;20231;-78
2023/12/18 05:11:42;;;;;;;23.40;14.10;;;;;;;5.42;95.84;102277.34;5014109;28;20257;-79
2023/12/18 05:14:09;;;;;;;23.17;13.83;;;;;;;5.40;95.78;102271.19;5006089;28;20202;-79
2023/12/18 05:16:36;;;;;;;24.90;13.60;;;;;;;5.38;95.97;102272.97;5010599;28;20673;-79
2023/12/18 05:19:02;;;;;;;21.70;14.17;;;;;;;5.38;95.88;102270.34;5007390;28;20219;-78
2023/12/18 05:21:29;;;;;;;25.20;14.27;;;;;;;5.36;95.22;102274.81;5013071;28;20226;-78
2023/12/18 05:23:55;;;;;;;21.33;13.00;;;;;;;5.33;95.56;102273.09;5015260;28;20652;-77
2023/12/18 05:26:22;;;;;;;21.17;13.97;;;;;;;5.28;95.10;102277.56;5006647;28;20241;-77
2023/12/18 05:28:49;;;;;;;23.50;14.07;;;;;;;5.23;95.67;102288.19;5011805;28;20258;-78
2023/12/18 05:31:18;;;;;;;20.93;13.60;;;;;;;5.22;95.53;102278.50;5009058;28;20218;-78
2023/12/18 05:33:45;;;;;;;20.43;13.17;;;;;;;5.22;95.08;102275.88;5008620;28;20214;-78
2023/12/18 05:36:11;;;;;;;18.83;11.93;;;;;;;5.20;94.82;102280.31;5007459;28;20214;-79
2023/12/18 05:38:37;;;;;;;15.67;11.87;;;;;;;5.22;93.96;102269.72;5011118;28;20218;-77
2023/12/18 05:41:03;;;;;;;19.00;11.77;;;;;;;5.21;93.74;102265.31;5004006;28;21509;-77
2023/12/18 05:43:30;;;;;;;17.13;11.17;;;;;;;5.19;93.47;102265.38;5009532;28;20227;-77
2023/12/18 05:45:56;;;;;;;15.00;11.43;;;;;;;5.19;93.14;102269.78;5009117;28;20215;-78
2023/12/18 05:48:24;;;;;;;16.43;10.83;;;;;;;5.17;92.76;102263.66;5008813;28;20203;-77
2023/12/18 05:50:51;;;;;;;18.37;11.13;;;;;;;5.17;92.29;102274.22;5006134;28;20721;-77
2023/12/18 05:53:17;;;;;;;16.10;11.37;;;;;;;5.16;92.58;102288.31;5015435;28;20203;-78
2023/12/18 05:55:44;;;;;;;19.17;11.83;;;;;;;5.16;92.96;102280.41;5009024;28;20218;-78
2023/12/18 05:58:10;;;;;;;16.43;10.90;;;;;;;5.14;93.26;102272.50;5012538;28;20213;-79
2023/12/18 06:00:38;;;;;;;19.83;12.33;;;;;;;5.15;93.21;102270.72;5014179;28;20633;-78
2023/12/18 06:03:05;;;;;;;15.03;11.23;;;;;;;5.15;93.33;102263.69;5014444;28;20235;-78
2023/12/18 06:05:33;;;;;;;18.67;13.03;;;;;;;5.13;93.76;102259.31;5010660;28;20203;-78
2023/12/18 06:08:01;;;;;;;18.33;12.23;;;;;;;5.12;93.68;102266.34;5002369;28;20257;-78
2023/12/18 06:10:27;;;;;;;18.07;12.50;;;;;;;5.15;93.80;102276.88;5010424;28;20238;-78
2023/12/18 06:12:53;;;;;;;20.33;13.13;;;;;;;5.17;93.89;102274.22;5011340;28;20293;-78
2023/12/18 06:15:20;;;;;;;16.10;11.70;;;;;;;5.17;93.79;102282.16;5009254;28;20211;-78
2023/12/18 06:17:46;;;;;;;19.13;12.10;;;;;;;5.15;93.52;102290.09;5013382;28;20590;-79
2023/12/18 06:20:13;;;;;;;17.73;13.60;;;;;;;5.16;94.06;102291.84;5016996;28;20233;-78
2023/12/18 06:22:41;;;;;;;18.57;12.20;;;;;;;5.16;94.07;102290.97;5018730;28;20238;-79
2023/12/18 06:25:08;;;;;;;18.33;13.70;;;;;;;5.17;94.20;102300.63;5014641;28;20219;-78
2023/12/18 06:27:35;;;;;;;20.57;14.03;;;;;;;5.18;94.30;102297.97;5014863;28;20214;-78
2023/12/18 06:30:01;;;;;;;17.63;13.17;;;;;;;5.18;94.69;102305.91;5010796;28;20237;-78
2023/12/18 06:32:27;;;;;;;17.33;12.83;;;;;;;5.20;94.64;102308.47;5019406;28;20210;-79
2023/12/18 06:34:54;;;;;;;16.90;13.30;;;;;;;5.22;94.85;102309.34;5013574;28;20213;-78
2023/12/18 06:37:20;;;;;;;19.07;12.87;;;;;;;5.23;94.42;102314.59;5014018;28;20219;-77
2023/12/18 06:39:48;;;;;;;17.73;12.47;;;;;;;5.25;94.48;102319.88;5007571;28;20230;-79
2023/12/18 06:42:15;;;;;;;19.57;13.97;;;;;;;5.26;94.74;102313.69;5012870;28;20234;-79
2023/12/18 06:44:41;;;;;;;22.33;14.07;;;;;;;5.27;94.97;102318.06;5008113;28;20215;-78
2023/12/18 06:47:08;;;;;;;21.60;14.60;;;;;;;5.27;95.50;102310.16;5013794;28;20707;-78
2023/12/18 06:49:34;;;;;;;23.27;14.80;;;;;;;5.27;95.50;102311.91;5008835;28;20233;-78
2023/12/18 06:52:01;;;;;;;23.13;15.70;;;;;;;5.30;95.33;102318.03;5011722;28;20214;-78
2023/12/18 06:54:27;;;;;;;23.07;15.33;;;;;;;5.31;95.34;102325.06;5012836;28;20207;-79
2023/12/18 06:56:55;;;;;;;19.53;14.07;;;;;;;5.33;94.88;102310.06;5017117;28;20211;-79
2023/12/18 06:59:21;;;;;;;22.07;15.73;;;;;;;5.36;94.78;102312.66;5012579;28;20707;-77
2023/12/18 07:01:48;;;;;;;19.67;14.73;;;;;;;5.36;95.18;102307.38;5013959;28;20663;-78
2023/12/18 07:04:14;;;;;;;20.97;15.33;;;;;;;5.34;95.59;102309.19;5006790;28;20238;-79
2023/12/18 07:06:41;;;;;;;22.87;15.30;;;;;;;5.34;95.81;102313.59;5007789;28;20260;-78
2023/12/18 07:09:07;;;;;;;22.40;16.03;;;;;;;5.34;95.84;102313.59;5011862;28;20241;-78
2023/12/18 07:11:34;;;;;;;25.40;17.60;;;;;;;5.33;96.51;102315.34;5016998;28;20203;-79
2023/12/18 07:14:02;;;;;;;23.93;15.93;;;;;;;5.32;96.58;102316.25;5008097;28;20199;-77
2023/12/18 07:16:28;;;;;;;26.60;17.83;;;;;;;5.31;97.25;102314.50;5008616;28;20297;-78
2023/12/18 07:18:56;;;;;;;24.17;16.53;;;;;;;5.32;97.47;102332.09;5013849;28;20238;-78
2023/12/18 07:21:23;;;;;;;24.47;16.97;;;;;;;5.34;97.70;102322.38;5009199;28;21791;-79
2023/12/18 07:23:49;;;;;;;27.73;17.47;;;;;;;5.36;97.77;102325.00;5000601;28;20687;-78
2023/12/18 07:26:16;;;;;;;28.90;17.40;;;;;;;5.38;98.15;102324.06;5012897;28;20218;-79
2023/12/18 07:28:42;;;;;;;28.07;19.30;;;;;;;5.37;98.39;102325.00;5011666;28;20232;-78
2023/12/18 07:31:10;;;;;;;40.13;23.97;;;;;;;5.40;98.21;102314.34;5010201;28;20294;-77
2023/12/18 07:33:37;;;;;;;29.67;18.60;;;;;;;5.39;98.27;102320.53;5009971;28;20256;-79
2023/12/18 07:36:04;;;;;;;26.30;16.57;;;;;;;5.39;98.64;102323.16;5016297;28;20217;-78
2023/12/18 07:38:30;;;;;;;25.73;17.03;;;;;;;5.39;98.55;102323.16;5016697;28;20219;-78
2023/12/18 07:40:57;;;;;;;26.77;16.10;;;;;;;5.40;98.95;102329.31;5012132;28;20210;-79
2023/12/18 07:43:24;;;;;;;25.57;16.30;;;;;;;5.43;98.73;102327.50;5011724;28;20222;-78
2023/12/18 07:45:50;;;;;;;25.03;15.77;;;;;;;5.45;98.74;102328.38;5013544;28;20678;-78
2023/12/18 07:48:21;;;;;;;22.77;15.90;;;;;;;5.46;99.08;102327.47;5014283;28;20214;-78
2023/12/18 07:50:48;;;;;;;25.03;15.83;;;;;;;5.46;99.10;102329.25;5011096;28;20237;-78
2023/12/18 07:53:15;;;;;;;25.47;16.77;;;;;;;5.46;99.31;102316.91;5010298;28;20674;-78
2023/12/18 07:55:41;;;;;;;26.30;16.70;;;;;;;5.49;99.36;102331.84;5011728;28;20685;-79
2023/12/18 07:58:08;;;;;;;24.20;15.47;;;;;;;5.53;99.33;102328.25;5016125;28;20237;-78
2023/12/18 08:00:34;;;;;;;23.53;16.00;;;;;;;5.53;99.90;102342.34;5012259;28;20218;-77
2023/12/18 08:03:01;;;;;;;27.63;16.23;;;;;;;5.51;100.00;102346.78;5016104;28;20226;-79
2023/12/18 08:05:29;;;;;;;25.77;16.43;;;;;;;5.51;100.00;102346.78;5013821;28;20203;-80
2023/12/18 08:07:57;;;;;;;20.93;14.87;;;;;;;5.54;100.00;102349.38;5013026;28;20210;-79
2023/12/18 08:10:23;;;;;;;23.13;14.80;;;;;;;5.53;100.00;102354.69;5014738;28;20262;-80
2023/12/18 08:12:50;;;;;;;20.97;14.37;;;;;;;5.53;99.86;102345.00;5014299;28;20199;-81
2023/12/18 08:15:16;;;;;;;20.80;14.30;;;;;;;5.54;99.34;102348.50;5013328;28;20269;-77
2023/12/18 08:17:43;;;;;;;20.37;12.90;;;;;;;5.52;100.00;102345.00;5015067;28;20202;-81
2023/12/18 08:20:11;;;;;;;19.57;13.33;;;;;;;5.50;99.78;102338.88;5023558;28;20241;-79
2023/12/18 08:22:39;;;;;;;21.23;13.73;;;;;;;5.50;100.00;102323.88;5009726;28;21430;-80
2023/12/18 08:25:06;;;;;;;22.23;14.50;;;;;;;5.51;100.00;102332.69;5014565;28;20202;-79
2023/12/18 08:27:34;;;;;;;18.40;13.73;;;;;;;5.52;99.95;102335.31;5015346;28;20203;-79
2023/12/18 08:30:00;;;;;;;17.87;12.17;;;;;;;5.53;100.00;102326.50;5010126;28;20772;-80
2023/12/18 08:32:27;;;;;;;20.70;12.10;;;;;;;5.53;100.00;102320.34;5013552;28;20206;-80
2023/12/18 08:34:54;;;;;;;16.67;11.20;;;;;;;5.56;100.00;102318.50;5018639;28;20214;-78
2023/12/18 08:37:20;;;;;;;21.23;13.33;;;;;;;5.55;100.00;102323.81;5010447;28;20210;-78
2023/12/18 08:39:48;;;;;;;20.77;12.67;;;;;;;5.52;100.00;102332.66;5013617;28;20234;-79
2023/12/18 08:42:14;;;;;;;15.50;11.10;;;;;;;5.53;100.00;102326.50;5013621;28;20207;-79
2023/12/18 08:44:41;;;;;;;19.80;12.57;;;;;;;5.54;100.00;102327.38;5017898;28;20686;-80
2023/12/18 08:47:10;;;;;;;16.33;11.93;;;;;;;5.54;100.00;102320.31;5010700;28;20211;-81
2023/12/18 08:49:37;;;;;;;16.73;11.57;;;;;;;5.55;100.00;102329.13;5014753;28;20242;-80
2023/12/18 08:52:04;;;;;;;17.30;10.70;;;;;;;5.55;100.00;102326.47;5009492;28;20203;-80
2023/12/18 08:54:30;;;;;;;14.87;10.10;;;;;;;5.57;100.00;102330.81;5011023;28;20659;-81
2023/12/18 08:56:58;;;;;;;15.30;9.57;;;;;;;5.62;100.00;102317.53;5010504;28;20214;-81
2023/12/18 08:59:24;;;;;;;13.87;10.87;;;;;;;5.61;100.00;102322.84;5016123;28;20218;-80
2023/12/18 09:01:51;;;;;;;14.40;10.07;;;;;;;5.61;100.00;102315.78;5012035;28;20219;-80
2023/12/18 09:04:17;;;;;;;15.90;10.30;;;;;;;5.63;100.00;102316.63;5009380;28;20230;-81
2023/12/18 09:06:44;;;;;;;15.77;10.20;;;;;;;5.66;100.00;102305.13;5012959;28;20207;-78
2023/12/18 09:09:11;;;;;;;16.50;10.80;;;;;;;5.73;100.00;102306.78;5003413;28;20239;-81
2023/12/18 09:11:38;;;;;;;14.93;10.20;;;;;;;5.69;100.00;102299.81;5007033;28;20222;-80
2023/12/18 09:14:07;;;;;;;13.07;9.47;;;;;;;5.68;100.00;102298.06;5007945;28;20199;-79
2023/12/18 09:16:35;;;;;;;15.53;9.27;;;;;;;5.65;100.00;102301.63;5008085;28;20214;-79
2023/12/18 09:19:01;;;;;;;14.30;9.13;;;;;;;5.64;100.00;102297.22;5014635;28;20230;-81
2023/12/18 09:21:28;;;;;;;14.07;9.00;;;;;;;5.75;100.00;102281.16;5009525;28;20215;-81
2023/12/18 09:23:54;;;;;;;13.00;9.80;;;;;;;5.74;100.00;102287.34;5007578;28;20264;-82
2023/12/18 09:26:21;;;;;;;13.53;9.63;;;;;;;5.72;100.00;102279.47;5010591;28;20195;-86
2023/12/18 09:28:48;;;;;;;11.20;9.07;;;;;;;5.75;100.00;102286.47;5006887;28;20698;-84
2023/12/18 09:31:17;;;;;;;11.47;9.07;;;;;;;5.70;100.00;102286.56;5005664;28;20214;-85
2023/12/18 09:33:44;;;;;;;13.40;9.67;;;;;;;5.67;100.00;102291.91;5009223;28;20207;-84
2023/12/18 09:36:11;;;;;;;11.80;9.23;;;;;;;5.72;100.00;102284.78;5013576;28;20291;-85
2023/12/18 09:38:38;;;;;;;10.63;8.50;;;;;;;5.76;100.00;102286.44;5007538;28;20222;-84
2023/12/18 09:41:04;;;;;;;13.83;9.37;;;;;;;5.73;100.00;102290.94;5014524;28;20209;-86
2023/12/18 09:43:31;;;;;;;11.93;9.07;;;;;;;5.70;100.00;102286.56;5008811;28;20592;-84
2023/12/18 09:45:58;;;;;;;9.70;7.53;;;;;;;5.70;100.00;102273.34;5008462;28;20214;-83
2023/12/18 09:48:26;;;;;;;12.63;8.97;;;;;;;5.71;100.00;102271.56;5011561;28;20205;-84
2023/12/18 09:50:53;;;;;;;12.37;9.07;;;;;;;5.69;100.00;102268.97;5004832;28;20821;-84
2023/12/18 09:53:22;;;;;;;10.37;8.67;;;;;;;5.72;100.00;102270.69;5011934;28;20203;-84
2023/12/18 09:55:51;;;;;;;17.00;8.47;;;;;;;5.73;100.00;102265.34;5003858;28;20949;-85
2023/12/18 09:58:19;;;;;;;12.67;8.17;;;;;;;5.74;100.00;102272.38;5009115;28;20730;-85
2023/12/18 10:00:47;;;;;;;10.63;8.40;;;;;;;5.77;100.00;102269.69;5010243;28;20207;-85
2023/12/18 10:03:16;;;;;;;12.73;7.87;;;;;;;5.80;100.00;102263.47;5010156;28;20409;-84
2023/12/18 10:05:45;;;;;;;12.00;7.77;;;;;;;5.83;100.00;102250.19;5010059;28;20207;-81
2023/12/18 10:08:11;;;;;;;10.67;7.87;;;;;;;5.81;100.00;102257.28;5006317;28;20257;-85
2023/12/18 10:10:38;;;;;;;10.13;7.50;;;;;;;5.79;100.00;102265.25;5010266;28;20667;-85
2023/12/18 10:13:07;;;;;;;8.87;6.97;;;;;;;5.82;100.00;102259.03;5001714;28;20901;-86
2023/12/18 10:15:35;;;;;;;10.47;7.90;;;;;;;5.82;100.00;102259.03;5010603;28;20572;-83
2023/12/18 10:18:02;;;;;;;11.67;7.80;;;;;;;5.80;100.00;102256.41;5007558;28;20799;-83
2023/12/18 10:20:29;;;;;;;10.33;7.53;;;;;;;5.86;100.00;102255.44;5012394;28;20225;-84
2023/12/18 10:23:00;;;;;;;10.83;7.77;;;;;;;5.89;100.00;102253.66;5009858;28;20298;-83
2023/12/18 10:25:27;;;;;;;10.30;7.80;;;;;;;5.91;100.00;102238.59;5012018;28;20199;-84
2023/12/18 10:27:55;;;;;;;10.47;7.83;;;;;;;5.94;100.00;102248.25;5011254;28;20210;-86
2023/12/18 10:30:25;;;;;;;9.20;7.43;;;;;;;5.99;100.00;102242.88;5007034;28;20229;-84
2023/12/18 10:32:52;;;;;;;12.27;7.47;;;;;;;5.99;100.00;102230.53;5009853;28;20215;-87
2023/12/18 10:35:18;;;;;;;9.97;6.90;;;;;;;6.01;100.00;102227.84;5012209;28;20210;-84
2023/12/18 10:37:49;;;;;;;10.33;7.53;;;;;;;6.03;100.00;102234.00;5024117;28;20206;-82
2023/12/18 10:40:19;;;;;;;10.73;8.77;;;;;;;6.06;100.00;102229.53;5014628;28;20226;-86
2023/12/18 10:42:56;;;;;;;9.93;7.63;;;;;;;6.09;100.00;102229.44;5009427;28;20279;-82
2023/12/18 10:45:25;;;;;;;8.87;6.90;;;;;;;6.11;100.00;102232.94;5005789;28;20191;-82
2023/12/18 10:47:53;;;;;;;11.83;7.90;;;;;;;6.11;100.00;102230.28;5007385;28;20200;-84
2023/12/18 10:50:21;;;;;;;10.07;7.17;;;;;;;6.08;100.00;102222.44;5006897;28;20245;-85
2023/12/18 10:52:48;;;;;;;10.40;7.23;;;;;;;6.10;100.00;102225.03;5010490;28;20221;-84
2023/12/18 10:55:19;;;;;;;10.73;7.70;;;;;;;6.13;100.00;102220.53;5009598;28;20207;-85
2023/12/18 10:57:46;;;;;;;10.53;7.40;;;;;;;6.18;100.00;102215.16;5009365;28;20206;-84
2023/12/18 11:00:15;;;;;;;10.17;7.43;;;;;;;6.16;100.00;102217.84;5016764;28;20226;-84
2023/12/18 11:02:42;;;;;;;10.43;7.77;;;;;;;6.19;100.00;102208.97;5004576;28;20306;-84
2023/12/18 11:05:09;;;;;;;10.83;8.37;;;;;;;6.21;100.00;102204.53;5005739;28;20318;-86
2023/12/18 11:07:36;;;;;;;9.73;7.27;;;;;;;6.20;100.00;102214.25;5007816;28;20199;-82
2023/12/18 11:10:03;;;;;;;11.80;7.87;;;;;;;6.19;100.00;102201.03;5007993;28;20235;-84
2023/12/18 11:12:32;;;;;;;11.33;7.67;;;;;;;6.20;100.00;102198.38;5002113;28;20238;-84
2023/12/18 11:15:09;;;;;;;9.37;7.23;;;;;;;6.20;100.00;102187.78;5004893;28;20199;-86
2023/12/18 11:17:46;;;;;;;9.67;6.47;;;;;;;6.25;100.00;102185.06;5002329;28;20216;-84
2023/12/18 11:20:21;;;;;;;8.23;7.20;;;;;;;6.26;100.00;102186.81;5003684;28;20737;-84